createdAt,value
2024-04-01T00:01:27.772Z,31.50
2024-04-01T00:04:31.452Z,25.90
2024-04-01T00:07:35.115Z,16.60
2024-04-01T00:10:39.324Z,27.90
2024-04-01T00:13:43.068Z,35.90
2024-04-01T00:16:46.745Z,26.50
2024-04-01T00:19:50.421Z,28.60
2024-04-01T00:22:54.083Z,31.80
2024-04-01T00:25:57.820Z,24.60
2024-04-01T00:29:01.491Z,25.70
2024-04-01T00:32:05.515Z,26.80
2024-04-01T00:35:10.819Z,31.40
2024-04-01T00:38:14.555Z,23.00
2024-04-01T00:41:18.235Z,31.20
2024-04-01T00:44:21.951Z,25.20
2024-04-01T00:47:26.222Z,31.40
2024-04-01T00:50:32.154Z,24.50
2024-04-01T00:53:36.447Z,27.20
2024-04-01T00:56:44.703Z,29.00
2024-04-01T00:59:50.573Z,27.40
2024-04-01T01:02:54.861Z,29.60
2024-04-01T01:05:58.748Z,23.50
2024-04-01T01:09:02.536Z,31.50
2024-04-01T01:12:07.111Z,29.50
2024-04-01T01:15:11.308Z,29.40
2024-04-01T01:18:15.090Z,31.70
2024-04-01T01:21:18.788Z,26.80
2024-04-01T01:24:22.858Z,30.00
2024-04-01T01:27:26.744Z,17.60
2024-04-01T01:30:32.025Z,28.80
2024-04-01T01:33:35.717Z,22.00
2024-04-01T01:36:39.484Z,25.60
2024-04-01T01:39:43.233Z,29.80
2024-04-01T01:42:47.632Z,26.00
2024-04-01T01:45:51.281Z,25.50
2024-04-01T01:48:54.971Z,21.80
2024-04-01T01:51:58.624Z,27.80
2024-04-01T01:55:03.552Z,28.00
2024-04-01T01:58:07.241Z,19.90
2024-04-01T02:01:10.893Z,25.50
2024-04-01T02:04:14.546Z,23.00
2024-04-01T02:07:18.398Z,20.90
2024-04-01T02:10:24.968Z,23.80
2024-04-01T02:13:28.733Z,28.20
2024-04-01T02:16:32.443Z,32.20
2024-04-01T02:19:36.749Z,25.20
2024-04-01T02:22:40.442Z,34.40
2024-04-01T02:25:44.105Z,22.20
2024-04-01T02:28:47.845Z,25.20
2024-04-01T02:31:51.881Z,21.10
2024-04-01T02:34:55.583Z,21.10
2024-04-01T02:37:59.242Z,25.60
2024-04-01T02:41:03.112Z,26.40
2024-04-01T02:44:06.974Z,23.90
2024-04-01T02:47:10.663Z,25.20
2024-04-01T02:50:14.585Z,24.20
2024-04-01T02:53:18.277Z,19.50
2024-04-01T02:56:21.926Z,21.00
2024-04-01T02:59:25.604Z,25.50
2024-04-01T03:02:29.278Z,22.10
2024-04-01T03:05:39.845Z,20.20
2024-04-01T03:08:43.548Z,23.70
2024-04-01T03:11:47.361Z,26.00
2024-04-01T03:14:51.019Z,21.50
2024-04-01T03:17:54.641Z,23.00
2024-04-01T03:20:58.469Z,27.30
2024-04-01T03:24:02.148Z,23.10
2024-04-01T03:27:05.858Z,21.60
2024-04-01T03:30:11.050Z,27.50
2024-04-01T03:33:16.333Z,23.00
2024-04-01T03:36:22.848Z,24.60
2024-04-01T03:39:29.903Z,22.20
2024-04-01T03:42:33.545Z,23.90
2024-04-01T03:45:37.773Z,19.00
2024-04-01T03:48:41.481Z,25.90
2024-04-01T03:51:45.289Z,19.20
2024-04-01T03:54:49.074Z,20.90
2024-04-01T03:57:52.732Z,24.10
2024-04-01T04:00:56.403Z,29.50
2024-04-01T04:04:00.340Z,19.80
2024-04-01T04:07:04.383Z,38.60
2024-04-01T04:10:08.423Z,29.20
2024-04-01T04:13:12.525Z,23.70
2024-04-01T04:16:16.204Z,23.40
2024-04-01T04:19:21.118Z,24.30
2024-04-01T04:22:24.930Z,26.30
2024-04-01T04:25:28.593Z,24.00
2024-04-01T04:28:32.288Z,24.10
2024-04-01T04:31:36.442Z,22.30
2024-04-01T04:34:43.274Z,28.40
2024-04-01T04:37:46.991Z,25.60
2024-04-01T04:40:51.006Z,26.20
2024-04-01T04:43:55.975Z,18.60
2024-04-01T04:46:59.669Z,23.90
2024-04-01T04:50:03.795Z,26.60
2024-04-01T04:53:07.499Z,25.10
2024-04-01T04:56:12.610Z,33.80
2024-04-01T04:59:16.250Z,24.40
2024-04-01T05:02:19.891Z,28.60
2024-04-01T05:05:24.610Z,28.00
2024-04-01T05:08:29.031Z,26.00
2024-04-01T05:11:32.833Z,30.10
2024-04-01T05:14:36.575Z,33.50
2024-04-01T05:17:40.321Z,28.40
2024-04-01T05:20:45.477Z,22.90
2024-04-01T05:23:49.236Z,31.70
2024-04-01T05:26:53.747Z,23.00
2024-04-01T05:30:05.281Z,25.00
2024-04-01T05:33:08.931Z,25.60
2024-04-01T05:36:12.659Z,27.60
2024-04-01T05:39:16.366Z,26.70
2024-04-01T05:42:21.167Z,22.00
2024-04-01T05:45:24.837Z,22.40
2024-04-01T05:48:28.491Z,25.20
2024-04-01T05:51:32.122Z,25.70
2024-04-01T05:54:36.025Z,22.50
2024-04-01T05:57:40.014Z,22.40
2024-04-01T06:00:43.682Z,23.00
2024-04-01T06:03:47.399Z,25.20
2024-04-01T06:06:52.088Z,14.70
2024-04-01T06:09:59.291Z,30.60
2024-04-01T06:13:03.824Z,19.20
2024-04-01T06:16:07.701Z,21.40
2024-04-01T06:19:11.439Z,24.40
2024-04-01T06:22:15.143Z,21.30
2024-04-01T06:25:19.243Z,22.20
2024-04-01T06:28:22.905Z,23.40
2024-04-01T06:31:26.559Z,25.20
2024-04-01T06:34:30.262Z,24.90
2024-04-01T06:37:35.650Z,29.50
2024-04-01T06:40:39.422Z,25.10
2024-04-01T06:43:43.215Z,22.30
2024-04-01T06:46:46.929Z,24.70
2024-04-01T06:49:50.615Z,26.90
2024-04-01T06:52:54.271Z,26.50
2024-04-01T06:55:58.029Z,18.90
2024-04-01T06:59:01.847Z,27.20
2024-04-01T07:02:06.179Z,25.40
2024-04-01T07:05:09.827Z,21.10
2024-04-01T07:08:13.523Z,24.50
2024-04-01T07:11:17.208Z,27.60
2024-04-01T07:14:21.722Z,26.30
2024-04-01T07:17:25.801Z,28.60
2024-04-01T07:20:29.456Z,28.00
2024-04-01T07:23:33.130Z,24.80
2024-04-01T07:26:36.794Z,27.80
2024-04-01T07:29:40.574Z,27.40
2024-04-01T07:32:44.215Z,31.00
2024-04-01T07:35:47.899Z,33.00
2024-04-01T07:38:51.750Z,20.30
2024-04-01T07:41:55.390Z,28.00
2024-04-01T07:44:59.156Z,28.20
2024-04-01T07:48:03.096Z,23.00
2024-04-01T07:51:06.920Z,23.40
2024-04-01T07:54:10.603Z,26.50
2024-04-01T07:57:14.258Z,19.90
2024-04-01T08:00:18.082Z,25.60
2024-04-01T08:03:21.759Z,23.00
2024-04-01T08:06:25.505Z,18.10
2024-04-01T08:09:29.675Z,24.20
2024-04-01T08:12:33.334Z,20.50
2024-04-01T08:15:36.983Z,28.80
2024-04-01T08:18:40.652Z,25.40
2024-04-01T08:21:44.304Z,23.60
2024-04-01T08:24:48.232Z,28.90
2024-04-01T08:27:52.051Z,18.90
2024-04-01T08:30:55.731Z,23.50
2024-04-01T08:33:59.431Z,26.50
2024-04-01T08:37:03.168Z,28.30
2024-04-01T08:40:08.196Z,30.50
2024-04-01T08:43:17.160Z,36.80
2024-04-01T08:46:22.258Z,21.60
2024-04-01T08:49:33.295Z,35.70
2024-04-01T08:52:55.419Z,31.30
2024-04-01T08:55:59.426Z,31.80
2024-04-01T08:59:03.280Z,30.40
2024-04-01T09:02:06.999Z,26.90
2024-04-01T09:05:10.746Z,31.80
2024-04-01T09:08:14.434Z,26.10
2024-04-01T09:11:18.319Z,32.70
2024-04-01T09:14:22.069Z,34.00
2024-04-01T09:17:27.571Z,40.20
2024-04-01T09:20:32.517Z,33.70
2024-04-01T09:23:43.090Z,32.90
2024-04-01T09:26:48.778Z,29.40
2024-04-01T09:29:53.588Z,32.10
2024-04-01T09:32:57.933Z,40.90
2024-04-01T09:36:02.098Z,34.40
2024-04-01T09:42:10.954Z,31.60
2024-04-01T09:45:14.649Z,32.00
2024-04-01T09:48:20.150Z,36.90
2024-04-01T09:51:25.235Z,30.10
2024-04-01T09:54:29.040Z,32.10
2024-04-01T09:57:51.818Z,29.90
2024-04-01T10:01:05.868Z,33.60
2024-04-01T10:04:34.336Z,27.90
2024-04-01T10:08:02.730Z,30.90
2024-04-01T10:11:25.233Z,29.90
2024-04-01T10:14:44.126Z,36.10
2024-04-01T10:17:53.658Z,34.10
2024-04-01T10:21:06.829Z,36.80
2024-04-01T10:24:38.581Z,27.50
2024-04-01T10:27:50.747Z,29.40
2024-04-01T10:31:22.176Z,33.70
2024-04-01T10:34:34.786Z,32.40
2024-04-01T10:38:10.306Z,39.10
2024-04-01T10:41:47.132Z,29.70
2024-04-01T10:45:26.203Z,39.70
2024-04-01T10:48:30.318Z,39.00
2024-04-01T10:52:12.233Z,30.70
2024-04-01T10:55:24.881Z,37.10
2024-04-01T10:58:50.062Z,30.30
2024-04-01T11:02:11.568Z,38.90
2024-04-01T11:05:33.710Z,30.10
2024-04-01T11:08:55.117Z,36.30
2024-04-01T11:12:35.992Z,44.50
2024-04-01T11:15:40.851Z,33.80
2024-04-01T11:19:01.040Z,39.30
2024-04-01T11:22:05.838Z,28.50
2024-04-01T11:25:19.623Z,51.90
2024-04-01T11:28:51.258Z,35.00
2024-04-01T11:32:04.971Z,39.60
2024-04-01T11:35:27.172Z,32.00
2024-04-01T11:39:04.361Z,32.10
2024-04-01T11:42:10.828Z,44.40
2024-04-01T11:45:18.595Z,46.50
2024-04-01T11:48:22.973Z,34.00
2024-04-01T11:51:36.957Z,37.90
2024-04-01T11:54:40.988Z,37.30
2024-04-01T11:57:44.701Z,35.80
2024-04-01T12:01:01.625Z,33.80
2024-04-01T12:04:06.652Z,31.10
2024-04-01T12:07:12.598Z,39.30
2024-04-01T12:10:16.528Z,38.10
2024-04-01T12:13:28.174Z,49.30
2024-04-01T12:16:35.120Z,42.80
2024-04-01T12:19:39.183Z,37.90
2024-04-01T12:22:43.196Z,28.60
2024-04-01T12:25:46.930Z,37.50
2024-04-01T12:28:53.774Z,32.80
2024-04-01T12:31:57.457Z,34.10
2024-04-01T12:35:03.333Z,41.60
2024-04-01T12:38:11.846Z,36.20
2024-04-01T12:41:23.134Z,31.00
2024-04-01T12:44:26.874Z,27.50
2024-04-01T12:47:30.843Z,34.90
2024-04-01T12:50:35.677Z,28.90
2024-04-01T12:54:11.367Z,30.90
2024-04-01T12:57:26.151Z,35.70
2024-04-01T13:00:37.289Z,33.30
2024-04-01T13:03:48.923Z,33.30
2024-04-01T13:07:12.222Z,29.70
2024-04-01T13:10:27.418Z,38.00
2024-04-01T13:13:56.689Z,31.60
2024-04-01T13:17:14.184Z,34.10
2024-04-01T13:20:26.555Z,38.70
2024-04-01T13:23:46.799Z,40.20
2024-04-01T13:27:28.804Z,45.20
2024-04-01T13:30:58.525Z,38.80
2024-04-01T13:34:27.647Z,33.30
2024-04-01T13:37:43.057Z,42.00
2024-04-01T13:41:20.257Z,33.50
2024-04-01T13:44:56.505Z,42.50
2024-04-01T13:48:41.370Z,37.80
2024-04-01T13:51:55.238Z,41.10
2024-04-01T13:55:09.255Z,38.80
2024-04-01T13:58:25.037Z,43.00
2024-04-01T14:01:40.413Z,41.70
2024-04-01T14:05:14.082Z,36.10
2024-04-01T14:08:42.322Z,38.80
2024-04-01T14:11:55.253Z,47.40
2024-04-01T14:15:26.463Z,40.00
2024-04-01T14:18:51.410Z,42.80
2024-04-01T14:21:56.142Z,40.50
2024-04-01T14:25:04.656Z,49.70
2024-04-01T14:28:08.411Z,37.00
2024-04-01T14:31:13.306Z,38.50
2024-04-01T14:34:17.229Z,53.20
2024-04-01T14:37:21.810Z,46.10
2024-04-01T14:40:26.536Z,41.00
2024-04-01T14:46:34.964Z,45.50
2024-04-01T14:49:38.927Z,45.10
2024-04-01T14:52:44.247Z,37.10
2024-04-01T14:55:48.508Z,47.20
2024-04-01T14:58:52.427Z,47.60
2024-04-01T15:01:57.155Z,46.70
2024-04-01T15:05:01.061Z,38.10
2024-04-01T15:08:09.685Z,54.50
2024-04-01T15:11:13.482Z,47.80
2024-04-01T15:14:22.450Z,55.60
2024-04-01T15:17:26.945Z,41.50
2024-04-01T15:20:30.681Z,47.30
2024-04-01T15:23:34.478Z,44.80
2024-04-01T15:26:39.503Z,50.00
2024-04-01T15:29:43.328Z,48.30
2024-04-01T15:32:47.353Z,46.40
2024-04-01T15:35:51.199Z,45.10
2024-04-01T15:38:55.269Z,36.30
2024-04-01T15:41:59.764Z,45.60
2024-04-01T15:45:08.006Z,39.90
2024-04-01T15:48:14.656Z,49.90
2024-04-01T15:51:19.730Z,46.40
2024-04-01T15:54:26.961Z,43.00
2024-04-01T15:57:31.430Z,33.20
2024-04-01T16:00:35.241Z,40.50
2024-04-01T16:03:39.542Z,49.10
2024-04-01T16:06:44.937Z,47.50
2024-04-01T16:09:53.250Z,46.60
2024-04-01T16:13:00.074Z,60.00
2024-04-01T16:16:14.586Z,52.90
2024-04-01T16:19:23.507Z,47.50
2024-04-01T16:22:30.105Z,42.20
2024-04-01T16:25:38.005Z,44.50
2024-04-01T16:28:47.926Z,49.30
2024-04-01T16:31:54.351Z,47.50
2024-04-01T16:34:58.775Z,44.30
2024-04-01T16:41:08.208Z,37.60
2024-04-01T16:44:13.482Z,48.50
2024-04-01T16:50:25.949Z,46.10
2024-04-01T16:53:33.939Z,50.40
2024-04-01T16:56:38.744Z,42.60
2024-04-01T16:59:43.261Z,54.10
2024-04-01T17:02:49.708Z,45.40
2024-04-01T17:05:54.263Z,57.80
2024-04-01T17:08:58.437Z,48.90
2024-04-01T17:12:07.346Z,48.90
2024-04-01T17:15:13.278Z,48.20
2024-04-01T17:18:17.347Z,48.10
2024-04-01T17:21:23.085Z,45.00
2024-04-01T17:24:31.312Z,40.40
2024-04-01T17:27:35.078Z,63.10
2024-04-01T17:30:40.299Z,67.80
2024-04-01T17:33:46.368Z,70.70
2024-04-01T17:36:51.023Z,66.50
2024-04-01T17:39:54.895Z,50.80
2024-04-01T17:42:58.681Z,62.40
2024-04-01T17:46:03.198Z,62.90
2024-04-01T17:49:07.140Z,72.00
2024-04-01T17:55:14.928Z,56.70
2024-04-01T17:58:19.769Z,60.80
2024-04-01T18:01:23.528Z,57.60
2024-04-01T18:04:27.300Z,67.70
2024-04-01T18:07:31.857Z,70.20
2024-04-01T18:10:36.280Z,66.70
2024-04-01T18:16:43.695Z,59.70
2024-04-01T18:19:48.287Z,67.30
2024-04-01T18:22:53.855Z,55.10
2024-04-01T18:26:00.077Z,70.90
2024-04-01T18:29:04.484Z,65.20
2024-04-01T18:32:08.785Z,64.40
2024-04-01T18:35:12.920Z,67.20
2024-04-01T18:38:16.696Z,64.70
2024-04-01T18:41:20.979Z,53.00
2024-04-01T18:44:25.851Z,51.60
2024-04-01T18:47:32.162Z,40.50
2024-04-01T18:50:35.985Z,45.00
2024-04-01T18:53:40.044Z,44.00
2024-04-01T18:56:44.140Z,46.70
2024-04-01T18:59:47.855Z,45.60
2024-04-01T19:02:51.551Z,48.70
2024-04-01T19:05:55.329Z,47.10
2024-04-01T19:09:00.579Z,46.40
2024-04-01T19:12:04.600Z,48.10
2024-04-01T19:15:08.664Z,55.40
2024-04-01T19:18:13.431Z,46.60
2024-04-01T19:21:20.676Z,39.30
2024-04-01T19:24:24.334Z,48.40
2024-04-01T19:27:27.997Z,50.00
2024-04-01T19:30:31.747Z,43.50
2024-04-01T19:33:48.267Z,43.60
2024-04-01T19:36:54.057Z,44.80
2024-04-01T19:39:58.091Z,35.90
2024-04-01T19:43:01.796Z,45.20
2024-04-01T19:46:08.270Z,35.20
2024-04-01T19:49:11.975Z,48.50
2024-04-01T19:52:19.558Z,55.40
2024-04-01T19:55:23.234Z,43.60
2024-04-01T19:58:26.936Z,37.20
2024-04-01T20:01:38.346Z,49.90
2024-04-01T20:04:42.013Z,50.70
2024-04-01T20:07:45.673Z,39.00
2024-04-01T20:10:49.508Z,47.70
2024-04-01T20:13:53.331Z,38.50
2024-04-01T20:16:57.376Z,40.70
2024-04-01T20:20:05.131Z,37.60
2024-04-01T20:23:14.730Z,31.30
2024-04-01T20:26:18.437Z,39.20
2024-04-01T20:29:23.330Z,48.90
2024-04-01T20:32:27.262Z,47.70
2024-04-01T20:35:30.916Z,43.70
2024-04-01T20:38:35.097Z,35.40
2024-04-01T20:41:38.758Z,41.60
2024-04-01T20:44:42.393Z,42.10
2024-04-01T20:47:46.100Z,45.80
2024-04-01T20:50:50.713Z,36.90
2024-04-01T20:54:21.213Z,37.00
2024-04-01T20:57:18.309Z,39.10
2024-04-01T21:00:36.980Z,44.50
2024-04-01T21:03:40.631Z,46.70
2024-04-01T21:06:49.117Z,46.70
2024-04-01T21:09:54.338Z,42.70
2024-04-01T21:12:59.287Z,43.60
2024-04-01T21:16:03.173Z,42.50
2024-04-01T21:19:07.357Z,36.50
2024-04-01T21:22:11.034Z,37.60
2024-04-01T21:25:14.737Z,40.20
2024-04-01T21:28:18.705Z,44.50
2024-04-01T21:31:22.461Z,40.70
2024-04-01T21:34:26.161Z,35.50
2024-04-01T21:37:43.511Z,39.00
2024-04-01T21:40:47.175Z,41.50
2024-04-01T21:43:50.818Z,33.70
2024-04-01T21:46:54.468Z,45.40
2024-04-01T21:49:58.218Z,35.20
2024-04-01T21:53:01.980Z,41.20
2024-04-01T21:56:05.819Z,38.70
2024-04-01T21:59:10.652Z,35.50
2024-04-01T22:02:14.354Z,35.50
2024-04-01T22:05:18.253Z,37.30
2024-04-01T22:08:21.904Z,43.80
2024-04-01T22:11:25.567Z,38.60
2024-04-01T22:14:29.230Z,35.40
2024-04-01T22:17:33.217Z,40.30
2024-04-01T22:20:37.034Z,35.60
2024-04-01T22:23:40.711Z,36.10
2024-04-01T22:26:46.553Z,50.50
2024-04-01T22:29:54.381Z,43.40
2024-04-01T22:32:58.058Z,44.60
2024-04-01T22:36:02.029Z,37.70
2024-04-01T22:39:09.052Z,33.80
2024-04-01T22:42:13.071Z,38.10
2024-04-01T22:45:16.825Z,36.60
2024-04-01T22:48:20.463Z,30.30
2024-04-01T22:51:24.174Z,38.20
2024-04-01T22:54:37.168Z,42.50
2024-04-01T22:57:40.934Z,35.60
2024-04-01T23:00:44.591Z,48.50
2024-04-01T23:03:48.254Z,39.10
2024-04-01T23:06:53.555Z,36.10
2024-04-01T23:09:57.372Z,39.40
2024-04-01T23:13:01.126Z,49.70
2024-04-01T23:16:10.517Z,35.60
2024-04-01T23:19:14.239Z,40.00
2024-04-01T23:22:17.932Z,47.60
2024-04-01T23:25:22.417Z,34.50
2024-04-01T23:28:26.085Z,37.60
2024-04-01T23:31:29.801Z,44.50
2024-04-01T23:34:33.614Z,44.20
2024-04-01T23:37:37.274Z,34.20
2024-04-01T23:40:41.116Z,35.90
2024-04-01T23:43:45.493Z,35.40
2024-04-01T23:46:49.699Z,39.10
2024-04-01T23:49:53.340Z,41.90
2024-04-01T23:52:57.058Z,30.90
2024-04-01T23:56:02.569Z,30.40
2024-04-01T23:59:06.954Z,32.50
